Time;durP1;ratioP1;P1;durP2;ratioP2;P2;SDS_P1;SDS_P2;PMS_P1;PMS_P2;Temp;Humidity;BMP_temperature;BMP_pressure;BME280_temperature;BME280_humidity;BME280_pressure;Samples;Min_cycle;Max_cycle;Signal;HPM_P1;HPM_P2
2022/10/21 00:00:08;;;;;;;16.12;8.35;;;;;;;5.49;100.00;99443.84;4310096;33;20375;-71
2022/10/21 00:02:59;;;;;;;21.02;9.00;;;;;;;4.90;100.00;99410.75;4311124;33;20074;-72
2022/10/21 00:05:26;;;;;;;15.63;9.05;;;;;;;5.43;100.00;99461.50;4310853;33;20183;-73
2022/10/21 00:07:52;;;;;;;16.27;8.18;;;;;;;5.61;100.00;99465.41;4311977;33;20062;-72
2022/10/21 00:10:18;;;;;;;21.80;9.60;;;;;;;5.27;100.00;99405.84;4311520;33;20059;-74
2022/10/21 00:12:45;;;;;;;19.10;9.00;;;;;;;5.49;100.00;99451.00;4311162;33;20363;-73
2022/10/21 00:15:12;;;;;;;13.02;7.20;;;;;;;5.18;100.00;99401.72;4311819;33;20120;-73
2022/10/21 00:17:40;;;;;;;14.43;7.47;;;;;;;5.25;100.00;99397.22;4321686;33;20028;-73
2022/10/21 00:20:09;;;;;;;16.65;7.22;;;;;;;5.31;100.00;99368.87;4324414;33;20401;-73
2022/10/21 00:22:36;;;;;;;16.10;7.70;;;;;;;5.05;100.00;99395.34;4321252;33;20102;-74
2022/10/21 00:25:03;;;;;;;20.33;9.75;;;;;;;5.88;100.00;99439.47;4323487;33;20094;-73
2022/10/21 00:27:30;;;;;;;13.05;7.55;;;;;;;5.29;100.00;99443.81;4323745;33;20095;-73
2022/10/21 00:29:56;;;;;;;17.33;8.13;;;;;;;4.81;100.00;99395.97;4323185;33;20209;-73
2022/10/21 00:32:23;;;;;;;16.12;8.40;;;;;;;5.62;100.00;99401.06;4322326;33;20111;-72
2022/10/21 00:34:49;;;;;;;18.35;8.48;;;;;;;5.25;100.00;99429.25;4321500;33;20158;-73
2022/10/21 00:37:18;;;;;;;16.60;8.63;;;;;;;4.91;100.00;99399.87;4323562;33;20052;-73
2022/10/21 00:39:45;;;;;;;15.65;7.37;;;;;;;5.33;100.00;99402.34;4323568;33;20107;-73
2022/10/21 00:42:16;;;;;;;17.95;7.72;;;;;;;5.57;100.00;99363.50;4323448;33;20101;-73
2022/10/21 00:44:42;;;;;;;15.93;7.95;;;;;;;5.84;100.00;99390.16;4323233;33;20173;-74
2022/10/21 00:47:15;;;;;;;23.95;9.20;;;;;;;5.62;100.00;99386.91;4322058;33;20031;-73
2022/10/21 00:49:48;;;;;;;16.85;8.63;;;;;;;5.26;100.00;99377.50;4312680;33;20074;-73
2022/10/21 00:52:19;;;;;;;19.48;8.60;;;;;;;4.85;100.00;99333.13;4310940;33;20072;-72
2022/10/21 00:54:47;;;;;;;14.73;7.62;;;;;;;4.93;100.00;99340.13;4309147;33;20040;-73
2022/10/21 00:57:14;;;;;;;20.02;9.80;;;;;;;5.15;100.00;99375.44;4311412;33;20044;-72
2022/10/21 00:59:47;;;;;;;16.27;8.27;;;;;;;5.06;100.00;99324.94;4310895;33;20072;-72
2022/10/21 01:02:14;;;;;;;16.08;7.72;;;;;;;5.16;100.00;99323.72;4310997;33;20096;-73
2022/10/21 01:04:40;;;;;;;24.73;8.65;;;;;;;5.53;100.00;99366.78;4309878;33;20058;-72
2022/10/21 01:07:07;;;;;;;19.33;8.23;;;;;;;5.31;100.00;99344.84;4311082;33;20124;-73
2022/10/21 01:09:33;;;;;;;16.40;8.45;;;;;;;4.79;100.00;99297.44;4311559;33;20045;-72
2022/10/21 01:12:01;;;;;;;16.50;8.82;;;;;;;5.07;100.00;99307.91;4311106;33;20065;-72
2022/10/21 01:14:40;;;;;;;19.70;8.52;;;;;;;4.97;100.00;99320.84;4311167;33;20382;-73
2022/10/21 01:17:15;;;;;;;20.95;9.02;;;;;;;5.13;100.00;99318.78;4310992;33;20056;-73
2022/10/21 01:20:29;;;;;;;18.17;8.77;;;;;;;5.40;100.00;99368.44;4311227;33;20122;-73
2022/10/21 01:23:14;;;;;;;25.52;7.97;;;;;;;5.04;100.00;99316.34;4311271;33;20166;-72
2022/10/21 01:25:59;;;;;;;19.10;9.75;;;;;;;5.24;100.00;99371.53;4310397;33;20033;-74
2022/10/21 01:29:00;;;;;;;18.83;8.25;;;;;;;5.44;100.00;99353.66;4311134;33;20172;-71
2022/10/21 01:31:38;;;;;;;15.90;8.25;;;;;;;5.53;100.00;99361.44;4309670;33;20045;-72
2022/10/21 01:34:13;;;;;;;14.40;8.10;;;;;;;5.12;100.00;99333.97;4311262;33;20030;-72
2022/10/21 01:36:46;;;;;;;18.62;8.90;;;;;;;5.50;100.00;99367.19;4312341;33;20045;-73
2022/10/21 01:39:24;;;;;;;15.82;8.45;;;;;;;5.23;100.00;99361.88;4326544;33;20060;-73
2022/10/21 01:41:56;;;;;;;21.70;8.27;;;;;;;5.13;100.00;99310.78;4326511;33;20067;-71
2022/10/21 01:44:32;;;;;;;16.35;8.75;;;;;;;5.43;100.00;99341.31;4325333;33;20040;-73
2022/10/21 01:47:15;;;;;;;17.87;8.05;;;;;;;4.67;100.00;99305.22;4284617;33;20419;-72
2022/10/21 01:49:48;;;;;;;20.17;8.80;;;;;;;4.48;100.00;99311.38;4282538;33;20057;-72
2022/10/21 01:52:15;;;;;;;18.20;7.03;;;;;;;5.21;100.00;99355.94;4281147;33;20326;-72
2022/10/21 01:54:47;;;;;;;18.10;8.40;;;;;;;5.22;100.00;99323.69;4291557;33;20196;-72
2022/10/21 01:57:17;;;;;;;19.77;9.82;;;;;;;5.14;100.00;99352.44;4275416;33;20055;-72
2022/10/21 01:59:45;;;;;;;18.58;8.52;;;;;;;4.77;100.00;99294.16;4277157;33;20034;-74
2022/10/21 02:02:14;;;;;;;18.67;9.68;;;;;;;4.82;100.00;99280.19;4268792;33;20089;-72
2022/10/21 02:04:44;;;;;;;21.80;9.77;;;;;;;4.91;100.00;99333.16;4268197;33;20107;-72
2022/10/21 02:07:10;;;;;;;21.25;8.60;;;;;;;5.19;100.00;99332.13;4266696;33;20030;-71
2022/10/21 02:09:36;;;;;;;14.77;7.50;;;;;;;4.79;100.00;99309.97;4267253;33;20067;-72
2022/10/21 02:12:05;;;;;;;22.98;8.90;;;;;;;4.69;100.00;99271.19;4267281;33;20051;-71
2022/10/21 02:14:37;;;;;;;19.80;8.35;;;;;;;4.95;100.00;99258.84;4267701;33;20207;-72
2022/10/21 02:17:06;;;;;;;20.67;8.45;;;;;;;4.96;100.00;99318.38;4269122;33;20056;-71
2022/10/21 02:19:33;;;;;;;19.65;9.32;;;;;;;5.31;100.00;99270.88;4280686;33;20045;-72
2022/10/21 02:22:03;;;;;;;19.15;8.05;;;;;;;4.70;100.00;99267.47;4276766;33;20078;-71
2022/10/21 02:24:50;;;;;;;16.23;9.07;;;;;;;4.50;100.00;99261.31;4271824;33;20041;-71
2022/10/21 02:27:24;;;;;;;19.27;9.80;;;;;;;4.83;100.00;99265.84;4283194;33;20376;-72
2022/10/21 02:29:56;;;;;;;18.35;8.73;;;;;;;4.82;100.00;99301.53;4312880;33;20072;-71
2022/10/21 02:32:34;;;;;;;12.27;7.45;;;;;;;5.27;100.00;99299.03;4313059;33;20084;-71
2022/10/21 02:35:10;;;;;;;28.00;9.18;;;;;;;4.97;100.00;99283.47;4311824;33;20097;-73
2022/10/21 02:37:46;;;;;;;16.62;8.15;;;;;;;4.93;100.00;99239.56;4313556;33;20029;-71
2022/10/21 02:40:21;;;;;;;17.15;8.45;;;;;;;4.76;100.00;99238.34;4313287;33;20070;-71
2022/10/21 02:42:55;;;;;;;22.37;8.95;;;;;;;4.92;100.00;99275.28;4310859;33;20037;-71
2022/10/21 02:45:22;;;;;;;14.57;7.20;;;;;;;4.10;100.00;99245.28;4312239;33;20407;-72
2022/10/21 02:47:49;;;;;;;16.25;8.50;;;;;;;4.64;100.00;99299.47;4311267;33;20383;-72
2022/10/21 02:50:16;;;;;;;18.17;9.20;;;;;;;4.96;100.00;99292.50;4312649;33;20447;-72
2022/10/21 02:52:42;;;;;;;23.67;7.97;;;;;;;5.27;100.00;99283.84;4309897;33;20059;-72
2022/10/21 02:55:08;;;;;;;17.37;8.63;;;;;;;4.81;100.00;99289.25;4312782;33;20256;-72
2022/10/21 02:57:35;;;;;;;14.05;7.10;;;;;;;4.44;100.00;99281.62;4312760;33;20036;-72
2022/10/21 03:00:04;;;;;;;15.20;8.02;;;;;;;4.15;100.00;99253.50;4310521;33;20076;-72
2022/10/21 03:02:30;;;;;;;16.15;7.80;;;;;;;4.36;100.00;99276.50;4296001;33;20025;-71
2022/10/21 03:04:56;;;;;;;18.73;8.98;;;;;;;4.76;100.00;99265.03;4294029;33;20094;-72
2022/10/21 03:07:23;;;;;;;20.92;7.72;;;;;;;4.79;100.00;99264.63;4307367;33;20044;-71
2022/10/21 03:09:49;;;;;;;22.62;8.18;;;;;;;4.87;100.00;99256.41;4325070;33;20052;-72
2022/10/21 03:12:15;;;;;;;19.02;8.82;;;;;;;4.90;100.00;99218.63;4307954;33;20073;-72
2022/10/21 03:14:42;;;;;;;14.93;8.73;;;;;;;5.06;100.00;99252.88;4302545;33;20088;-71
2022/10/21 03:17:14;;;;;;;18.02;9.30;;;;;;;4.95;100.00;99258.84;4284306;33;20033;-73
2022/10/21 03:19:40;;;;;;;21.77;8.85;;;;;;;4.54;100.00;99251.88;4281457;33;20083;-73
2022/10/21 03:22:07;;;;;;;14.52;8.75;;;;;;;4.87;100.00;99261.75;4287529;33;20033;-73
2022/10/21 03:24:33;;;;;;;14.13;7.12;;;;;;;4.85;100.00;99194.41;4295769;33;20414;-73
2022/10/21 03:27:00;;;;;;;14.82;7.57;;;;;;;5.37;100.00;99251.34;4295516;33;20070;-74
2022/10/21 03:29:26;;;;;;;15.73;8.00;;;;;;;5.31;100.00;99246.84;4294392;33;20123;-74
2022/10/21 03:31:52;;;;;;;15.98;7.97;;;;;;;5.20;100.00;99242.16;4295231;33;20081;-73
2022/10/21 03:34:19;;;;;;;20.58;8.80;;;;;;;5.40;100.00;99218.88;4295800;33;20426;-72
2022/10/21 03:36:45;;;;;;;19.27;7.78;;;;;;;5.24;100.00;99190.00;4288974;33;20060;-74
2022/10/21 03:39:12;;;;;;;12.95;6.50;;;;;;;4.62;100.00;99190.34;4294754;33;20226;-74
2022/10/21 03:41:38;;;;;;;14.80;6.97;;;;;;;5.37;100.00;99216.63;4294608;33;20417;-73
2022/10/21 03:44:05;;;;;;;16.50;7.97;;;;;;;5.41;100.00;99220.53;4295541;33;20399;-73
2022/10/21 03:46:31;;;;;;;21.92;9.48;;;;;;;5.31;100.00;99181.97;4294865;33;20073;-72
2022/10/21 03:48:58;;;;;;;17.45;7.35;;;;;;;5.13;100.00;99217.34;4307753;33;20071;-72
2022/10/21 03:51:24;;;;;;;17.98;8.07;;;;;;;5.06;100.00;99174.66;4311077;33;20066;-73
2022/10/21 03:53:51;;;;;;;15.75;7.70;;;;;;;5.22;100.00;99210.75;4309462;33;20048;-72
2022/10/21 03:56:17;;;;;;;13.43;7.53;;;;;;;5.16;100.00;99207.06;4311852;33;20202;-72
2022/10/21 03:58:43;;;;;;;13.73;7.45;;;;;;;5.12;100.00;99207.69;4311913;33;20452;-72
2022/10/21 04:01:11;;;;;;;15.95;8.15;;;;;;;5.14;100.00;99198.47;4310984;33;20041;-72
2022/10/21 04:03:39;;;;;;;12.20;7.35;;;;;;;4.72;100.00;99158.75;4313985;33;20119;-72
2022/10/21 04:06:05;;;;;;;16.52;7.32;;;;;;;4.68;100.00;99154.84;4315954;33;20044;-73
2022/10/21 04:08:32;;;;;;;15.18;6.57;;;;;;;5.00;100.00;99203.00;4324603;33;20425;-72
2022/10/21 04:10:59;;;;;;;12.82;6.78;;;;;;;4.69;100.00;99163.66;4318272;33;20062;-72
2022/10/21 04:13:25;;;;;;;11.40;7.12;;;;;;;4.81;100.00;99215.34;4308537;33;20062;-71
2022/10/21 04:15:57;;;;;;;15.77;7.37;;;;;;;5.31;100.00;99196.13;4308814;33;20056;-72
2022/10/21 04:18:24;;;;;;;13.68;7.03;;;;;;;4.64;100.00;99156.28;4309155;33;20049;-72
2022/10/21 04:20:50;;;;;;;24.60;8.23;;;;;;;5.01;100.00;99161.09;4279420;33;20029;-72
2022/10/21 04:23:16;;;;;;;15.40;7.47;;;;;;;4.77;100.00;99202.63;4264658;33;20052;-72
2022/10/21 04:25:43;;;;;;;15.13;9.02;;;;;;;4.77;100.00;99181.28;4267993;33;20042;-72
2022/10/21 04:28:16;;;;;;;25.00;8.48;;;;;;;4.94;100.00;99197.69;4279905;33;20049;-73
2022/10/21 04:30:43;;;;;;;11.30;7.43;;;;;;;4.75;100.00;99156.69;4275625;33;20070;-72
2022/10/21 04:33:09;;;;;;;18.17;8.23;;;;;;;4.72;100.00;99147.22;4280667;33;20085;-72
2022/10/21 04:35:38;;;;;;;15.48;8.68;;;;;;;4.57;100.00;99144.81;4268140;33;20049;-74
2022/10/21 04:38:05;;;;;;;15.57;8.00;;;;;;;4.94;100.00;99182.47;4292819;33;20049;-73
2022/10/21 04:40:32;;;;;;;15.80;8.50;;;;;;;4.99;100.00;99147.97;4280501;33;20037;-73
2022/10/21 04:42:58;;;;;;;16.85;7.97;;;;;;;5.01;100.00;99172.63;4278966;33;20358;-73
2022/10/21 04:45:24;;;;;;;22.85;8.20;;;;;;;4.70;100.00;99133.28;4279107;33;20364;-73
2022/10/21 04:47:51;;;;;;;21.33;7.68;;;;;;;4.70;100.00;99166.09;4278632;33;20045;-73
2022/10/21 04:50:17;;;;;;;16.30;7.97;;;;;;;4.56;100.00;99116.50;4279454;33;20891;-73
2022/10/21 04:52:45;;;;;;;18.85;9.13;;;;;;;4.60;100.00;99171.06;4305202;33;20069;-72
2022/10/21 04:55:11;;;;;;;15.30;7.53;;;;;;;4.55;100.00;99141.53;4321532;33;20108;-71
2022/10/21 04:57:39;;;;;;;20.33;8.57;;;;;;;4.48;100.00;99170.03;4350088;32;20513;-73
2022/10/21 05:00:06;;;;;;;17.98;9.23;;;;;;;4.46;100.00;99158.78;4337286;33;20051;-73
2022/10/21 05:02:33;;;;;;;17.45;9.18;;;;;;;4.44;100.00;99166.16;4337879;33;20058;-71
2022/10/21 05:04:59;;;;;;;18.35;9.13;;;;;;;4.66;100.00;99164.91;4338491;33;20145;-72
2022/10/21 05:07:26;;;;;;;14.48;8.00;;;;;;;4.67;100.00;99171.84;4340916;33;20102;-72
2022/10/21 05:09:52;;;;;;;18.37;8.38;;;;;;;4.44;100.00;99171.50;4325772;33;20029;-72
2022/10/21 05:12:19;;;;;;;19.50;9.80;;;;;;;4.65;100.00;99131.25;4327913;33;20052;-71
2022/10/21 05:14:45;;;;;;;36.10;10.00;;;;;;;4.06;100.00;99102.81;4327665;33;20037;-71
2022/10/21 05:17:12;;;;;;;17.62;8.05;;;;;;;4.36;100.00;99074.69;4311809;33;20040;-73
2022/10/21 05:19:38;;;;;;;19.62;10.68;;;;;;;4.22;100.00;99121.06;4312555;33;20427;-73
2022/10/21 05:22:04;;;;;;;16.35;10.10;;;;;;;4.35;100.00;99147.69;4310484;33;20043;-72
2022/10/21 05:24:31;;;;;;;22.33;8.80;;;;;;;4.15;100.00;99141.56;4313677;33;20032;-73
2022/10/21 05:26:57;;;;;;;22.95;8.80;;;;;;;4.35;100.00;99120.22;4313310;33;20070;-72
2022/10/21 05:29:30;;;;;;;20.08;9.60;;;;;;;4.26;100.00;99127.62;4314883;33;20070;-74
2022/10/21 05:31:56;;;;;;;19.23;9.95;;;;;;;4.28;100.00;99136.22;4313048;33;20072;-72
2022/10/21 05:34:22;;;;;;;16.90;7.80;;;;;;;4.60;100.00;99122.25;4312881;33;20462;-72
2022/10/21 05:36:49;;;;;;;20.40;9.55;;;;;;;4.60;100.00;99109.72;4311647;33;20082;-71
2022/10/21 05:39:22;;;;;;;20.70;9.32;;;;;;;4.30;100.00;99128.03;4312370;33;20122;-71
2022/10/21 05:41:48;;;;;;;17.12;8.25;;;;;;;4.92;100.00;99144.53;4310205;33;20126;-72
2022/10/21 05:44:15;;;;;;;30.77;9.38;;;;;;;4.73;100.00;99060.84;4312116;33;20070;-73
2022/10/21 05:46:41;;;;;;;19.33;10.57;;;;;;;4.79;100.00;99136.56;4311561;33;20691;-72
2022/10/21 05:49:07;;;;;;;22.37;9.43;;;;;;;4.51;100.00;99097.62;4312932;33;20045;-73
2022/10/21 05:51:34;;;;;;;18.25;9.32;;;;;;;4.57;100.00;99128.81;4313627;33;20090;-72
2022/10/21 05:54:02;;;;;;;28.67;10.05;;;;;;;4.63;100.00;99101.31;4309899;33;20196;-73
2022/10/21 05:56:29;;;;;;;32.45;9.50;;;;;;;4.99;100.00;99137.31;4315096;33;20071;-76
2022/10/21 05:58:55;;;;;;;15.85;7.30;;;;;;;4.84;100.00;99088.72;4315979;33;20374;-77
2022/10/21 06:01:28;;;;;;;24.65;9.05;;;;;;;4.56;100.00;99113.81;4315313;33;20427;-76
2022/10/21 06:03:54;;;;;;;25.95;10.20;;;;;;;4.78;100.00;99114.38;4312924;33;20032;-77
2022/10/21 06:06:21;;;;;;;24.75;10.77;;;;;;;4.73;100.00;99093.69;4315761;33;20071;-75
2022/10/21 06:08:47;;;;;;;16.27;9.15;;;;;;;4.81;100.00;99049.13;4315018;33;20058;-76
2022/10/21 06:11:16;;;;;;;26.48;10.85;;;;;;;5.09;100.00;99119.00;4315059;33;20100;-79
2022/10/21 06:13:43;;;;;;;24.58;9.52;;;;;;;4.99;100.00;99121.28;4341178;33;20024;-82
2022/10/21 06:16:11;;;;;;;16.90;9.07;;;;;;;5.12;100.00;99124.94;4310687;33;20044;-83
2022/10/21 06:18:38;;;;;;;18.80;9.63;;;;;;;5.44;100.00;99129.31;4313263;33;20258;-82
2022/10/21 06:21:06;;;;;;;32.45;10.45;;;;;;;4.67;100.00;99059.84;4313373;33;20070;-82
2022/10/21 06:23:32;;;;;;;24.40;8.82;;;;;;;5.36;100.00;99137.59;4297524;33;20041;-82
2022/10/21 06:26:06;;;;;;;31.10;10.52;;;;;;;5.70;100.00;99137.41;4295494;33;20045;-82
2022/10/21 06:28:34;;;;;;;24.87;10.38;;;;;;;5.78;100.00;99129.94;4296062;33;20067;-82
2022/10/21 06:31:02;;;;;;;18.05;9.75;;;;;;;5.94;100.00;99133.94;4287619;33;20072;-83
2022/10/21 06:33:28;;;;;;;20.35;10.77;;;;;;;5.51;100.00;99096.41;4278846;33;21097;-84
2022/10/21 06:35:55;;;;;;;19.83;9.50;;;;;;;5.81;100.00;99129.50;4280077;33;20207;-82
2022/10/21 06:38:23;;;;;;;17.35;8.98;;;;;;;6.31;100.00;99122.56;4276941;33;20069;-82
2022/10/21 06:40:51;;;;;;;25.42;9.85;;;;;;;6.11;100.00;99126.25;4265787;33;20498;-81
2022/10/21 06:43:21;;;;;;;17.77;8.93;;;;;;;6.25;100.00;99118.09;4266859;33;20016;-81
2022/10/21 06:45:48;;;;;;;16.33;9.27;;;;;;;5.93;100.00;99120.78;4264528;33;20071;-80
2022/10/21 06:48:14;;;;;;;19.42;9.40;;;;;;;5.98;100.00;99107.63;4278501;33;20087;-91
2022/10/21 06:50:41;;;;;;;23.85;10.25;;;;;;;6.21;100.00;99058.91;4258375;33;20046;-83
2022/10/21 06:53:07;;;;;;;16.15;9.18;;;;;;;6.08;100.00;99038.47;4238389;33;20088;-84
2022/10/21 06:55:34;;;;;;;31.42;10.00;;;;;;;6.46;100.00;99090.97;4249725;33;20043;-83
2022/10/21 06:58:00;;;;;;;21.80;10.38;;;;;;;6.16;100.00;99046.19;4237980;33;20068;-80
2022/10/21 07:00:27;;;;;;;21.15;9.75;;;;;;;5.99;100.00;99087.88;4236161;33;20046;-83
2022/10/21 07:02:53;;;;;;;23.52;9.75;;;;;;;6.17;100.00;99079.91;4238221;33;20076;-84
2022/10/21 07:05:20;;;;;;;24.83;9.65;;;;;;;6.11;100.00;99047.87;4262142;33;20042;-83
2022/10/21 07:07:47;;;;;;;29.25;10.25;;;;;;;5.98;100.00;99088.91;4253154;33;20068;-83
2022/10/21 07:10:13;;;;;;;22.67;9.15;;;;;;;5.86;100.00;99034.53;4251226;33;20068;-82
2022/10/21 07:12:40;;;;;;;22.65;10.85;;;;;;;6.06;100.00;99088.63;4223672;33;20047;-81
2022/10/21 07:15:07;;;;;;;30.88;11.10;;;;;;;6.03;100.00;99094.44;4250830;33;20084;-82
2022/10/21 07:17:33;;;;;;;19.83;10.23;;;;;;;5.92;100.00;99079.06;4249560;33;20061;-81
2022/10/21 07:20:00;;;;;;;21.15;9.07;;;;;;;6.32;100.00;99081.44;4260564;33;20087;-82
2022/10/21 07:22:26;;;;;;;23.77;11.40;;;;;;;6.22;100.00;99038.31;4289588;33;20071;-81
2022/10/21 07:24:53;;;;;;;23.58;10.70;;;;;;;6.00;100.00;99030.72;4293729;33;20412;-84
2022/10/21 07:27:19;;;;;;;30.88;9.82;;;;;;;6.43;100.00;99083.38;4295573;33;20047;-83
2022/10/21 07:29:46;;;;;;;19.25;9.20;;;;;;;6.29;100.00;99077.34;4294782;33;20795;-83
2022/10/21 07:32:12;;;;;;;28.58;11.65;;;;;;;6.34;100.00;99064.09;4293906;33;20084;-83
2022/10/21 07:34:39;;;;;;;20.10;9.25;;;;;;;6.53;100.00;99019.47;4264814;33;20034;-81
2022/10/21 07:37:05;;;;;;;32.78;11.48;;;;;;;6.65;100.00;99032.94;4229035;33;20046;-82
2022/10/21 07:39:33;;;;;;;19.67;10.32;;;;;;;7.07;100.00;99024.16;4209772;34;20587;-82
2022/10/21 07:42:00;;;;;;;21.20;10.98;;;;;;;6.70;100.00;99008.16;4212006;34;20031;-83
2022/10/21 07:44:27;;;;;;;23.05;10.23;;;;;;;7.17;100.00;99047.72;4227632;33;20358;-82
2022/10/21 07:46:54;;;;;;;18.98;10.18;;;;;;;7.24;100.00;99062.66;4210882;34;20035;-83
2022/10/21 07:49:21;;;;;;;26.75;10.52;;;;;;;7.30;100.00;99017.25;4222311;34;20093;-83
2022/10/21 07:51:49;;;;;;;19.90;9.60;;;;;;;7.93;100.00;99045.31;4222423;33;20055;-84
2022/10/21 07:54:16;;;;;;;23.27;9.90;;;;;;;7.62;100.00;99048.06;4224252;33;20039;-84
2022/10/21 07:56:45;;;;;;;24.30;9.27;;;;;;;7.81;100.00;99034.59;4251233;33;20026;-83
2022/10/21 07:59:15;;;;;;;27.25;10.95;;;;;;;7.83;100.00;99032.50;4248492;33;20125;-82
2022/10/21 08:01:46;;;;;;;32.92;11.23;;;;;;;7.97;100.00;99025.84;4251427;33;20414;-83
2022/10/21 08:04:17;;;;;;;24.05;9.48;;;;;;;7.55;100.00;98985.75;4255701;33;20055;-81
2022/10/21 08:06:45;;;;;;;20.88;10.00;;;;;;;8.14;100.00;98984.94;4263893;33;20056;-81
2022/10/21 08:09:13;;;;;;;25.00;11.48;;;;;;;8.48;100.00;99012.00;4265947;33;20099;-81
2022/10/21 08:11:41;;;;;;;23.10;10.60;;;;;;;7.92;100.00;99019.56;4278244;33;20107;-81
2022/10/21 08:14:09;;;;;;;21.95;9.88;;;;;;;7.90;100.00;98974.22;4281066;33;20063;-81
2022/10/21 08:16:35;;;;;;;19.00;9.98;;;;;;;7.81;100.00;99005.09;4279140;33;20049;-82
2022/10/21 08:19:03;;;;;;;23.25;9.95;;;;;;;8.49;100.00;99009.06;4266508;33;20080;-82
2022/10/21 08:21:30;;;;;;;18.05;9.45;;;;;;;7.99;100.00;98978.19;4251825;33;20056;-81
2022/10/21 08:23:57;;;;;;;25.12;10.15;;;;;;;8.09;100.00;99008.94;4263956;33;20100;-84
2022/10/21 08:26:24;;;;;;;34.70;13.48;;;;;;;8.70;100.00;98996.88;4252014;33;20052;-81
2022/10/21 08:28:50;;;;;;;24.48;10.43;;;;;;;8.31;100.00;98993.91;4253705;33;20117;-83
2022/10/21 08:31:19;;;;;;;21.95;11.20;;;;;;;8.48;100.00;98998.56;4255104;33;20421;-80
2022/10/21 08:33:47;;;;;;;19.98;9.30;;;;;;;8.51;100.00;98992.72;4265562;33;20067;-83
2022/10/21 08:36:23;;;;;;;17.87;9.77;;;;;;;8.21;100.00;98990.19;4265627;33;20085;-82
2022/10/21 08:38:51;;;;;;;24.77;10.63;;;;;;;8.37;100.00;98990.25;4281781;33;20081;-83
2022/10/21 08:41:29;;;;;;;25.05;11.27;;;;;;;8.47;100.00;98935.22;4281251;33;20041;-83
2022/10/21 08:44:01;;;;;;;22.42;10.27;;;;;;;8.70;100.00;98951.25;4294243;33;20057;-84
2022/10/21 08:46:39;;;;;;;20.35;9.25;;;;;;;8.99;100.00;98948.53;4304783;33;20024;-83
2022/10/21 08:49:22;;;;;;;24.50;10.48;;;;;;;8.48;100.00;98985.16;4307544;33;20044;-83
2022/10/21 08:51:56;;;;;;;22.20;11.55;;;;;;;9.22;100.00;98979.03;4308762;33;20070;-81
2022/10/21 08:54:55;;;;;;;21.90;9.35;;;;;;;8.72;100.00;98954.50;4324273;33;20088;-81
2022/10/21 08:57:22;;;;;;;17.02;9.55;;;;;;;9.76;100.00;98974.00;4323548;33;20339;-84
2022/10/21 08:59:49;;;;;;;24.15;10.60;;;;;;;9.74;100.00;98970.75;4322441;33;20060;-76
2022/10/21 09:02:36;;;;;;;15.02;9.27;;;;;;;9.57;100.00;98937.69;4322360;33;20040;-78
2022/10/21 09:05:31;;;;;;;17.67;9.88;;;;;;;9.15;100.00;98938.09;4324152;33;20062;-77
2022/10/21 09:08:23;;;;;;;19.98;9.57;;;;;;;10.11;100.00;98964.81;4322507;33;20376;-77
2022/10/21 09:11:01;;;;;;;25.08;11.00;;;;;;;9.46;100.00;98917.88;4310879;33;20072;-78
2022/10/21 09:13:51;;;;;;;21.40;11.32;;;;;;;10.31;100.00;98958.91;4338173;33;20172;-77
2022/10/21 09:16:28;;;;;;;16.12;9.88;;;;;;;10.25;100.00;98897.19;4336564;33;20040;-78
2022/10/21 09:19:08;;;;;;;21.08;10.93;;;;;;;10.01;100.00;98921.66;4328219;33;20168;-78
2022/10/21 09:22:21;;;;;;;24.50;9.77;;;;;;;9.50;100.00;98910.97;4323405;33;20048;-78
2022/10/21 09:25:01;;;;;;;20.40;9.52;;;;;;;10.25;100.00;98927.59;4280247;33;20065;-76
2022/10/21 09:27:30;;;;;;;22.27;10.63;;;;;;;10.17;100.00;98942.31;4283526;33;20058;-79
2022/10/21 09:30:01;;;;;;;21.10;10.60;;;;;;;10.15;100.00;98944.44;4264965;33;20096;-78
2022/10/21 09:32:33;;;;;;;16.00;9.85;;;;;;;10.66;100.00;98943.47;4265400;33;20412;-76
2022/10/21 09:35:18;;;;;;;21.40;10.30;;;;;;;10.17;100.00;98936.13;4266305;33;20469;-77
2022/10/21 09:37:59;;;;;;;17.35;8.93;;;;;;;10.24;100.00;98941.31;4264864;33;20040;-78
2022/10/21 09:40:28;;;;;;;20.85;10.93;;;;;;;10.53;100.00;98907.78;4265419;33;20169;-78
2022/10/21 09:42:58;;;;;;;27.92;10.75;;;;;;;10.54;100.00;98904.00;4264563;33;20041;-77
2022/10/21 09:45:32;;;;;;;18.02;9.70;;;;;;;10.31;100.00;98941.94;4238030;33;20069;-77
2022/10/21 09:48:04;;;;;;;18.65;8.90;;;;;;;10.32;100.00;98900.50;4232471;33;20043;-78
2022/10/21 09:50:33;;;;;;;23.30;10.55;;;;;;;10.75;100.00;98933.84;4236318;33;20031;-79
2022/10/21 09:53:13;;;;;;;23.80;10.77;;;;;;;10.80;100.00;98923.16;4235361;33;20076;-77
2022/10/21 09:55:39;;;;;;;16.75;10.05;;;;;;;10.78;100.00;98908.31;4221933;33;20050;-79
2022/10/21 09:58:06;;;;;;;14.95;9.00;;;;;;;10.97;100.00;98900.69;4231124;33;20481;-77
2022/10/21 10:00:58;;;;;;;14.13;8.45;;;;;;;11.18;100.00;98869.34;4230517;33;20062;-78
2022/10/21 10:03:28;;;;;;;;;;;;;;;10.85;100.00;98904.34;4209882;34;20817;-77
2022/10/21 10:05:55;;;;;;;16.55;8.07;;;;;;;11.20;100.00;98905.75;4210611;34;19948;-78
2022/10/21 10:08:24;;;;;;;18.42;9.13;;;;;;;11.04;100.00;98895.87;4210279;34;20061;-77
2022/10/21 10:10:50;;;;;;;21.35;10.52;;;;;;;11.94;100.00;98890.63;4224061;33;20043;-77
2022/10/21 10:13:22;;;;;;;14.87;8.65;;;;;;;11.56;100.00;98887.13;4225810;33;20128;-77
2022/10/21 10:15:48;;;;;;;22.35;9.32;;;;;;;11.61;100.00;98895.25;4225026;33;20026;-77
2022/10/21 10:18:22;;;;;;;20.05;9.82;;;;;;;11.50;100.00;98855.81;4225972;33;20080;-77
2022/10/21 10:21:23;;;;;;;25.58;10.77;;;;;;;11.39;100.00;98891.88;4222973;34;20238;-79
2022/10/21 10:23:55;;;;;;;19.25;9.25;;;;;;;11.55;100.00;98900.88;4231300;33;20087;-78
2022/10/21 10:26:30;;;;;;;13.52;9.23;;;;;;;11.62;100.00;98883.41;4218895;33;20027;-77
2022/10/21 10:29:03;;;;;;;22.98;10.82;;;;;;;11.79;100.00;98874.31;4211638;34;20055;-78
2022/10/21 10:31:32;;;;;;;18.73;8.88;;;;;;;12.15;100.00;98831.34;4209908;34;20061;-78
2022/10/21 10:34:06;;;;;;;17.35;10.13;;;;;;;12.15;100.00;98871.84;4211409;34;20457;-78
2022/10/21 10:36:38;;;;;;;14.35;9.10;;;;;;;11.53;100.00;98833.72;4194940;34;20035;-78
2022/10/21 10:39:18;;;;;;;21.45;10.27;;;;;;;12.24;100.00;98864.87;4196931;34;20069;-78
2022/10/21 10:41:52;;;;;;;27.92;11.82;;;;;;;12.34;100.00;98872.19;4230727;33;20049;-78
2022/10/21 10:44:21;;;;;;;20.17;10.40;;;;;;;11.62;100.00;98858.34;4236761;33;20056;-78
2022/10/21 10:46:53;;;;;;;22.08;11.07;;;;;;;11.96;100.00;98869.59;4238112;33;20453;-78
2022/10/21 10:49:23;;;;;;;21.40;10.20;;;;;;;12.05;100.00;98866.41;4238692;33;20057;-78
2022/10/21 10:52:23;;;;;;;21.02;11.10;;;;;;;11.99;100.00;98831.28;4236251;33;20027;-77
2022/10/21 10:55:16;;;;;;;15.23;8.45;;;;;;;11.79;100.00;98841.94;4194429;34;20054;-78
2022/10/21 10:57:47;;;;;;;23.40;11.45;;;;;;;12.49;100.00;98860.59;4180508;34;20219;-78
2022/10/21 11:00:20;;;;;;;19.70;10.68;;;;;;;11.96;100.00;98864.19;4169637;34;20442;-78
2022/10/21 11:02:49;;;;;;;19.48;11.05;;;;;;;12.56;100.00;98865.75;4168580;34;20423;-77
2022/10/21 11:05:22;;;;;;;19.35;9.05;;;;;;;12.58;100.00;98864.41;4166270;34;20045;-77
2022/10/21 11:07:51;;;;;;;23.08;8.82;;;;;;;12.90;100.00;98866.88;4189883;34;20043;-79
2022/10/21 11:10:30;;;;;;;16.42;8.40;;;;;;;13.13;100.00;98853.13;4206787;34;20109;-77
2022/10/21 11:13:02;;;;;;;21.98;8.75;;;;;;;12.68;100.00;98810.44;4191263;34;20417;-78
2022/10/21 11:15:41;;;;;;;22.50;9.30;;;;;;;12.80;100.00;98841.78;4179242;34;20368;-79
2022/10/21 11:18:33;;;;;;;19.48;9.82;;;;;;;12.81;100.00;98805.56;4165593;34;20049;-81
2022/10/21 11:21:11;;;;;;;18.30;8.00;;;;;;;13.23;100.00;98809.88;4166324;34;20090;-80
2022/10/21 11:23:47;;;;;;;16.20;9.05;;;;;;;13.02;100.00;98831.50;4168986;34;20054;-81
2022/10/21 11:27:08;;;;;;;15.13;8.50;;;;;;;13.04;100.00;98794.19;4142160;34;20505;-81
2022/10/21 11:29:49;;;;;;;18.83;8.70;;;;;;;13.04;100.00;98815.81;4130069;34;20074;-81
2022/10/21 11:32:45;;;;;;;;;;;;;;;13.15;100.00;98769.88;4206303;33;20051;-80
2022/10/21 11:35:27;;;;;;;12.50;6.53;;;;;;;13.09;100.00;98805.00;4168694;34;19955;-82
2022/10/21 11:37:59;;;;;;;16.77;7.00;;;;;;;12.94;100.00;98769.91;4195121;34;20043;-79